Wetterdaten: Woche 16.07.18 - 22.07.18 (KW29)
Datum Zeit Temp. Aussen Temp. o. S. +5cm Feuchte Auss Luftdruck Regen Sonnenschein Regendauer Solar Windben Empfang
16.07.2018 00:00 18,3 C 16,6 C 14,2 C 67 % 1012,9 hPa 0,0 l/m 0,00 h 0,00 h 0 W/m 0,2 km/h (0 Bft) 97,70 %
16.07.2018 01:00 17,4 C 16,2 C 15,6 C 70 % 1012,8 hPa 0,0 l/m 0,00 h 0,00 h 0 W/m 0,6 km/h (0 Bft) 97,79 %
16.07.2018 02:00 16,8 C 15,8 C 15,3 C 71 % 1012,7 hPa 0,0 l/m 0,00 h 0,00 h 0 W/m 0,2 km/h (0 Bft) 96,30 %
16.07.2018 03:00 16,4 C 15,6 C 15,0 C 73 % 1012,2 hPa 0,0 l/m 0,00 h 0,00 h 0 W/m 0,6 km/h (0 Bft) 97,86 %
16.07.2018 04:00 15,9 C 15,4 C 15,0 C 76 % 1011,9 hPa 0,0 l/m 0,00 h 0,00 h 0 W/m 1,1 km/h (0 Bft) 99,36 %
16.07.2018 05:00 15,8 C 15,0 C 14,6 C 77 % 1011,9 hPa 0,0 l/m 0,00 h 0,00 h 8 W/m 1,5 km/h (1 Bft) 95,80 %
16.07.2018 06:00 15,3 C 14,4 C 13,9 C 79 % 1012,0 hPa 0,0 l/m 0,00 h 0,00 h 18 W/m 0,2 km/h (0 Bft) 97,62 %
16.07.2018 07:00 15,2 C 15,9 C 15,3 C 83 % 1011,9 hPa 0,0 l/m 0,00 h 0,00 h 30 W/m 2,9 km/h (1 Bft) 97,93 %
16.07.2018 08:00 16,7 C 19,0 C 17,1 C 80 % 1011,6 hPa 0,0 l/m 0,57 h 0,00 h 225 W/m 3,7 km/h (1 Bft) 97,41 %
16.07.2018 09:00 20,0 C 22,4 C 19,3 C 68 % 1011,6 hPa 0,0 l/m 1,00 h 0,00 h 483 W/m 4,1 km/h (1 Bft) 97,66 %
16.07.2018 10:00 23,0 C 26,2 C 21,3 C 60 % 1011,4 hPa 0,0 l/m 1,00 h 0,00 h 625 W/m 4,8 km/h (1 Bft) 97,06 %
16.07.2018 11:00 27,1 C 37,1 C 23,3 C 51 % 1011,2 hPa 0,0 l/m 1,00 h 0,00 h 741 W/m 6,6 km/h (2 Bft) 97,54 %
16.07.2018 12:00 30,0 C 38,0 C 25,2 C 41 % 1010,9 hPa 0,0 l/m 1,00 h 0,00 h 832 W/m 7,6 km/h (2 Bft) 98,60 %
16.07.2018 13:00 30,3 C 35,3 C 26,4 C 39 % 1010,5 hPa 0,0 l/m 1,00 h 0,00 h 881 W/m 8,0 km/h (2 Bft) 95,83 %
16.07.2018 14:00 29,9 C 29,6 C 26,8 C 39 % 1010,2 hPa 0,0 l/m 0,97 h 0,00 h 841 W/m 7,8 km/h (2 Bft) 98,86 %
16.07.2018 15:00 29,9 C 30,5 C 27,2 C 38 % 1009,6 hPa 0,0 l/m 0,90 h 0,00 h 784 W/m 9,7 km/h (2 Bft) 99,72 %
16.07.2018 16:00 30,5 C 33,5 C 27,6 C 36 % 1009,2 hPa 0,0 l/m 0,97 h 0,00 h 654 W/m 9,1 km/h (2 Bft) 94,06 %
16.07.2018 17:00 29,9 C 30,5 C 27,6 C 37 % 1009,1 hPa 0,0 l/m 0,73 h 0,00 h 518 W/m 10,9 km/h (2 Bft) 97,31 %
16.07.2018 18:00 30,3 C 30,3 C 28,0 C 36 % 1008,8 hPa 0,0 l/m 1,00 h 0,00 h 486 W/m 10,8 km/h (2 Bft) 99,26 %
16.07.2018 19:00 29,5 C 28,6 C 25,2 C 38 % 1008,8 hPa 0,0 l/m 0,73 h 0,00 h 252 W/m 10,2 km/h (2 Bft) 96,24 %
16.07.2018 20:00 27,5 C 25,4 C 20,5 C 42 % 1009,0 hPa 0,0 l/m 0,00 h 0,00 h 38 W/m 8,1 km/h (2 Bft) 97,01 %
16.07.2018 21:00 25,6 C 22,5 C 18,1 C 48 % 1009,6 hPa 0,0 l/m 0,00 h 0,00 h 13 W/m 4,6 km/h (1 Bft) 98,84 %
16.07.2018 22:00 23,5 C 21,4 C 18,7 C 53 % 1010,1 hPa 0,0 l/m 0,00 h 0,00 h 0 W/m 0,5 km/h (0 Bft) 97,02 %
16.07.2018 23:00 21,7 C 19,8 C 17,9 C 58 % 1010,3 hPa 0,0 l/m 0,00 h 0,00 h 0 W/m 0,4 km/h (0 Bft) 98,15 %
17.07.2018 00:00 20,4 C 19,1 C 17,7 C 61 % 1010,4 hPa 0,0 l/m 0,00 h 0,00 h 0 W/m 0,2 km/h (0 Bft) 97,10 %
17.07.2018 01:00 19,7 C 18,8 C 18,2 C 64 % 1010,8 hPa 0,0 l/m 0,00 h 0,00 h 0 W/m 3,3 km/h (1 Bft) 96,25 %
17.07.2018 02:00 19,4 C 18,1 C 17,8 C 69 % 1010,7 hPa 0,0 l/m 0,00 h 0,00 h 0 W/m 2,0 km/h (1 Bft) 99,58 %
17.07.2018 03:00 18,9 C 17,9 C 17,6 C 73 % 1010,5 hPa 0,0 l/m 0,00 h 0,00 h 0 W/m 2,3 km/h (1 Bft) 97,37 %
17.07.2018 04:00 18,8 C 18,5 C 17,6 C 76 % 1010,2 hPa 0,0 l/m 0,00 h 0,00 h 0 W/m 0,2 km/h (0 Bft) 95,37 %
17.07.2018 05:00 18,6 C 17,7 C 17,4 C 76 % 1010,7 hPa 0,0 l/m 0,00 h 0,00 h 9 W/m 2,3 km/h (1 Bft) 99,59 %
17.07.2018 06:00 18,3 C 17,6 C 17,2 C 79 % 1011,0 hPa 0,0 l/m 0,00 h 0,00 h 26 W/m 1,3 km/h (1 Bft) 97,01 %
17.07.2018 07:00 18,7 C 19,2 C 18,3 C 80 % 1011,4 hPa 0,0 l/m 0,13 h 0,00 h 85 W/m 2,9 km/h (1 Bft) 96,72 %
17.07.2018 08:00 20,1 C 20,8 C 19,5 C 77 % 1011,9 hPa 0,0 l/m 0,00 h 0,00 h 117 W/m 4,2 km/h (1 Bft) 98,57 %
17.07.2018 09:00 21,1 C 22,1 C 20,3 C 73 % 1012,2 hPa 0,0 l/m 0,33 h 0,00 h 266 W/m 5,0 km/h (1 Bft) 96,42 %
17.07.2018 10:00 23,2 C 25,4 C 22,4 C 65 % 1012,4 hPa 0,0 l/m 0,70 h 0,00 h 417 W/m 6,8 km/h (2 Bft) 97,53 %
17.07.2018 11:00 25,9 C 32,5 C 23,9 C 56 % 1012,5 hPa 0,0 l/m 0,93 h 0,00 h 708 W/m 8,4 km/h (2 Bft) 97,59 %
17.07.2018 12:00 29,1 C 35,3 C 26,1 C 47 % 1012,6 hPa 0,0 l/m 1,00 h 0,00 h 810 W/m 8,8 km/h (2 Bft) 96,68 %
17.07.2018 13:00 29,8 C 33,2 C 27,2 C 45 % 1012,4 hPa 0,0 l/m 1,00 h 0,00 h 871 W/m 11,2 km/h (2 Bft) 99,22 %
17.07.2018 14:00 29,8 C 29,8 C 27,5 C 45 % 1012,3 hPa 0,0 l/m 0,87 h 0,00 h 814 W/m 9,9 km/h (2 Bft) 96,64 %
17.07.2018 15:00 29,7 C 30,2 C 27,5 C 45 % 1012,2 hPa 0,0 l/m 0,80 h 0,00 h 655 W/m 11,5 km/h (2 Bft) 97,37 %
17.07.2018 16:00 29,4 C 30,5 C 27,3 C 46 % 1012,1 hPa 0,0 l/m 0,63 h 0,00 h 560 W/m 11,6 km/h (2 Bft) 98,65 %
17.07.2018 17:00 28,4 C 28,3 C 26,5 C 49 % 1012,1 hPa 0,0 l/m 0,33 h 0,00 h 304 W/m 9,5 km/h (2 Bft) 97,30 %
17.07.2018 18:00 28,2 C 26,6 C 23,9 C 51 % 1012,2 hPa 0,0 l/m 0,87 h 0,00 h 463 W/m 10,8 km/h (2 Bft) 96,91 %
17.07.2018 19:00 26,8 C 22,9 C 20,5 C 53 % 1012,4 hPa 0,0 l/m 0,47 h 0,00 h 200 W/m 12,3 km/h (3 Bft) 97,42 %
17.07.2018 20:00 24,5 C 22,8 C 21,8 C 59 % 1013,3 hPa 0,0 l/m 0,07 h 0,00 h 54 W/m 16,2 km/h (3 Bft) 98,65 %
17.07.2018 21:00 22,7 C 21,2 C 20,7 C 61 % 1014,3 hPa 0,0 l/m 0,00 h 0,00 h 14 W/m 16,4 km/h (3 Bft) 96,93 %
17.07.2018 22:00 20,7 C 19,1 C 19,1 C 62 % 1015,0 hPa 0,0 l/m 0,00 h 0,00 h 0 W/m 8,7 km/h (2 Bft) 95,95 %
17.07.2018 23:00 19,3 C 17,5 C 17,8 C 67 % 1015,5 hPa 0,0 l/m 0,00 h 0,00 h 0 W/m 4,7 km/h (1 Bft) 99,22 %
18.07.2018 00:00 18,1 C 16,2 C 16,6 C 73 % 1015,8 hPa 0,0 l/m 0,00 h 0,00 h 0 W/m 2,2 km/h (1 Bft) 95,09 %
18.07.2018 01:00 16,9 C 15,2 C 15,3 C 77 % 1015,9 hPa 0,0 l/m 0,00 h 0,00 h 0 W/m 0,0 km/h (0 Bft) 95,59 %
18.07.2018 02:00 15,8 C 14,3 C 14,4 C 80 % 1016,0 hPa 0,0 l/m 0,00 h 0,00 h 0 W/m 0,0 km/h (0 Bft) 97,37 %
18.07.2018 03:00 14,9 C 13,4 C 13,6 C 83 % 1016,0 hPa 0,0 l/m 0,00 h 0,00 h 0 W/m 0,2 km/h (0 Bft) 98,16 %
18.07.2018 04:00 14,1 C 12,8 C 13,1 C 85 % 1016,1 hPa 0,0 l/m 0,00 h 0,00 h 0 W/m 0,0 km/h (0 Bft) 98,93 %
18.07.2018 05:00 13,5 C 12,4 C 12,6 C 85 % 1016,3 hPa 0,0 l/m 0,00 h 0,00 h 7 W/m 0,0 km/h (0 Bft) 96,48 %
18.07.2018 06:00 13,1 C 12,6 C 12,8 C 88 % 1016,5 hPa 0,0 l/m 0,00 h 0,00 h 21 W/m 0,0 km/h (0 Bft) 97,34 %
18.07.2018 07:00 13,4 C 14,6 C 13,6 C 92 % 1016,7 hPa 0,0 l/m 0,00 h 0,00 h 38 W/m 0,0 km/h (0 Bft) 97,27 %
18.07.2018 08:00 15,3 C 17,7 C 16,3 C 89 % 1016,9 hPa 0,0 l/m 0,50 h 0,00 h 206 W/m 2,6 km/h (1 Bft) 97,79 %
18.07.2018 09:00 18,4 C 20,2 C 18,0 C 73 % 1017,0 hPa 0,0 l/m 1,00 h 0,00 h 462 W/m 5,6 km/h (1 Bft) 98,80 %
18.07.2018 10:00 20,8 C 23,7 C 19,5 C 63 % 1017,0 hPa 0,0 l/m 1,00 h 0,00 h 605 W/m 6,6 km/h (2 Bft) 95,02 %
18.07.2018 11:00 23,9 C 31,3 C 21,1 C 55 % 1016,8 hPa 0,0 l/m 0,97 h 0,00 h 719 W/m 7,4 km/h (2 Bft) 98,65 %
18.07.2018 12:00 25,3 C 31,4 C 22,1 C 52 % 1016,6 hPa 0,0 l/m 0,83 h 0,00 h 666 W/m 6,9 km/h (2 Bft) 99,54 %
18.07.2018 13:00 26,4 C 30,6 C 23,5 C 49 % 1016,3 hPa 0,0 l/m 0,87 h 0,00 h 797 W/m 8,0 km/h (2 Bft) 94,53 %
18.07.2018 14:00 26,1 C 26,4 C 23,6 C 49 % 1016,0 hPa 0,0 l/m 0,60 h 0,00 h 659 W/m 8,9 km/h (2 Bft) 98,15 %
18.07.2018 15:00 26,4 C 27,4 C 24,5 C 48 % 1015,7 hPa 0,0 l/m 0,73 h 0,00 h 737 W/m 8,8 km/h (2 Bft) 98,64 %
18.07.2018 16:00 27,0 C 30,5 C 25,0 C 47 % 1015,4 hPa 0,0 l/m 0,83 h 0,00 h 753 W/m 8,9 km/h (2 Bft) 96,87 %
18.07.2018 17:00 28,2 C 29,3 C 25,9 C 44 % 1015,1 hPa 0,0 l/m 0,90 h 0,00 h 668 W/m 7,9 km/h (2 Bft) 96,86 %
18.07.2018 18:00 28,3 C 28,3 C 25,8 C 44 % 1014,9 hPa 0,0 l/m 0,93 h 0,00 h 487 W/m 6,5 km/h (2 Bft) 98,68 %
18.07.2018 19:00 27,0 C 22,8 C 18,5 C 48 % 1014,9 hPa 0,0 l/m 1,00 h 0,00 h 259 W/m 4,4 km/h (1 Bft) 98,79 %
18.07.2018 20:00 24,4 C 16,5 C 16,0 C 59 % 1014,8 hPa 0,0 l/m 0,73 h 0,00 h 78 W/m 4,3 km/h (1 Bft) 96,52 %
18.07.2018 21:00 21,2 C 17,9 C 16,2 C 70 % 1015,0 hPa 0,0 l/m 0,23 h 0,00 h 18 W/m 3,0 km/h (1 Bft) 96,76 %
18.07.2018 22:00 19,9 C 19,7 C 16,7 C 69 % 1015,4 hPa 0,0 l/m 0,00 h 0,00 h 0 W/m 0,5 km/h (0 Bft) 98,56 %
18.07.2018 23:00 19,7 C 19,0 C 17,7 C 67 % 1015,7 hPa 0,0 l/m 0,00 h 0,00 h 0 W/m 0,8 km/h (0 Bft) 98,31 %
19.07.2018 00:00 19,1 C 17,9 C 16,8 C 68 % 1015,8 hPa 0,0 l/m 0,00 h 0,00 h 0 W/m 0,5 km/h (0 Bft) 95,71 %
19.07.2018 01:00 18,3 C 16,8 C 16,5 C 72 % 1016,1 hPa 0,0 l/m 0,00 h 0,00 h 0 W/m 1,2 km/h (1 Bft) 97,15 %
19.07.2018 02:00 17,4 C 15,8 C 15,7 C 74 % 1016,2 hPa 0,0 l/m 0,00 h 0,00 h 0 W/m 0,4 km/h (0 Bft) 99,79 %
19.07.2018 03:00 16,5 C 14,9 C 14,8 C 78 % 1016,1 hPa 0,0 l/m 0,00 h 0,00 h 0 W/m 0,7 km/h (0 Bft) 96,43 %
19.07.2018 04:00 15,6 C 14,3 C 14,3 C 81 % 1016,1 hPa 0,0 l/m 0,00 h 0,00 h 0 W/m 0,1 km/h (0 Bft) 97,04 %
19.07.2018 05:00 14,9 C 13,8 C 13,9 C 82 % 1016,0 hPa 0,0 l/m 0,00 h 0,00 h 7 W/m 0,0 km/h (0 Bft) 98,11 %
19.07.2018 06:00 14,6 C 14,9 C 14,3 C 86 % 1016,1 hPa 0,0 l/m 0,00 h 0,00 h 34 W/m 1,2 km/h (1 Bft) 97,14 %
19.07.2018 07:00 15,9 C 17,2 C 15,9 C 85 % 1016,3 hPa 0,0 l/m 0,00 h 0,00 h 97 W/m 6,1 km/h (2 Bft) 98,64 %
19.07.2018 08:00 17,7 C 19,1 C 17,2 C 80 % 1016,3 hPa 0,0 l/m 0,43 h 0,00 h 237 W/m 7,6 km/h (2 Bft) 95,94 %
19.07.2018 09:00 20,2 C 21,9 C 19,4 C 72 % 1016,4 hPa 0,0 l/m 0,73 h 0,00 h 317 W/m 7,7 km/h (2 Bft) 97,78 %
19.07.2018 10:00 21,8 C 24,3 C 20,2 C 69 % 1016,5 hPa 0,0 l/m 0,47 h 0,00 h 377 W/m 5,1 km/h (1 Bft) 99,36 %
19.07.2018 11:00 25,2 C 31,8 C 22,7 C 58 % 1016,2 hPa 0,0 l/m 1,00 h 0,00 h 685 W/m 8,8 km/h (2 Bft) 94,23 %
19.07.2018 12:00 28,4 C 33,7 C 24,4 C 48 % 1015,9 hPa 0,0 l/m 0,70 h 0,00 h 580 W/m 9,1 km/h (2 Bft) 98,82 %
19.07.2018 13:00 28,4 C 31,0 C 25,1 C 45 % 1015,4 hPa 0,0 l/m 0,77 h 0,00 h 696 W/m 7,8 km/h (2 Bft) 99,57 %
19.07.2018 14:00 28,4 C 28,8 C 26,0 C 44 % 1015,0 hPa 0,0 l/m 0,90 h 0,00 h 845 W/m 9,9 km/h (2 Bft) 94,88 %
19.07.2018 15:00 28,6 C 29,0 C 26,1 C 44 % 1014,7 hPa 0,0 l/m 0,83 h 0,00 h 644 W/m 7,6 km/h (2 Bft) 98,03 %
19.07.2018 16:00 28,7 C 30,5 C 26,1 C 44 % 1014,5 hPa 0,0 l/m 0,73 h 0,00 h 562 W/m 6,5 km/h (2 Bft) 99,00 %
19.07.2018 17:00 29,0 C 30,0 C 26,6 C 43 % 1014,0 hPa 0,0 l/m 1,00 h 0,00 h 547 W/m 6,3 km/h (2 Bft) 97,51 %
19.07.2018 18:00 28,4 C 25,7 C 22,8 C 46 % 1013,6 hPa 0,0 l/m 0,77 h 0,00 h 279 W/m 6,3 km/h (2 Bft) 95,65 %
19.07.2018 19:00 26,8 C 23,7 C 18,3 C 50 % 1013,3 hPa 0,0 l/m 0,77 h 0,00 h 208 W/m 8,0 km/h (2 Bft) 98,13 %
19.07.2018 20:00 25,8 C 22,5 C 21,1 C 51 % 1013,3 hPa 0,0 l/m 0,00 h 0,00 h 60 W/m 8,1 km/h (2 Bft) 99,43 %
19.07.2018 21:00 24,2 C 18,1 C 16,6 C 58 % 1013,6 hPa 0,0 l/m 0,00 h 0,00 h 14 W/m 5,0 km/h (1 Bft) 96,23 %
19.07.2018 22:00 22,4 C 19,8 C 18,3 C 63 % 1013,8 hPa 0,0 l/m 0,00 h 0,00 h 0 W/m 8,0 km/h (2 Bft) 96,37 %
19.07.2018 23:00 21,6 C 20,3 C 20,0 C 63 % 1014,0 hPa 0,0 l/m 0,00 h 0,00 h 0 W/m 7,7 km/h (2 Bft) 99,07 %
20.07.2018 00:00 20,9 C 19,1 C 18,8 C 64 % 1014,1 hPa 0,0 l/m 0,00 h 0,00 h 0 W/m 3,6 km/h (1 Bft) 97,32 %
20.07.2018 01:00 19,5 C 17,3 C 17,2 C 68 % 1014,0 hPa 0,0 l/m 0,00 h 0,00 h 0 W/m 0,7 km/h (0 Bft) 95,94 %
20.07.2018 02:00 18,0 C 16,1 C 16,2 C 72 % 1013,5 hPa 0,0 l/m 0,00 h 0,00 h 0 W/m 0,2 km/h (0 Bft) 97,72 %
20.07.2018 03:00 16,8 C 15,2 C 15,2 C 77 % 1013,2 hPa 0,0 l/m 0,00 h 0,00 h 0 W/m 0,2 km/h (0 Bft) 98,93 %
20.07.2018 04:00 15,9 C 14,5 C 14,7 C 79 % 1012,9 hPa 0,0 l/m 0,00 h 0,00 h 0 W/m 0,2 km/h (0 Bft) 97,01 %
20.07.2018 05:00 15,2 C 13,9 C 14,1 C 81 % 1012,7 hPa 0,0 l/m 0,00 h 0,00 h 8 W/m 0,2 km/h (0 Bft) 97,18 %
20.07.2018 06:00 14,8 C 14,4 C 14,2 C 84 % 1012,5 hPa 0,0 l/m 0,00 h 0,00 h 30 W/m 0,2 km/h (0 Bft) 98,03 %
20.07.2018 07:00 15,1 C 15,8 C 15,2 C 87 % 1012,3 hPa 0,0 l/m 0,00 h 0,00 h 62 W/m 1,1 km/h (1 Bft) 95,94 %
20.07.2018 08:00 16,6 C 18,3 C 16,9 C 87 % 1012,2 hPa 0,0 l/m 0,47 h 0,00 h 198 W/m 3,1 km/h (1 Bft) 99,57 %
20.07.2018 09:00 19,1 C 21,5 C 19,0 C 81 % 1012,3 hPa 0,0 l/m 1,00 h 0,00 h 445 W/m 4,1 km/h (1 Bft) 97,37 %
20.07.2018 10:00 22,0 C 25,9 C 21,1 C 69 % 1012,0 hPa 0,0 l/m 1,00 h 0,00 h 585 W/m 6,7 km/h (2 Bft) 95,62 %
20.07.2018 11:00 25,2 C 31,3 C 22,5 C 56 % 1011,8 hPa 0,0 l/m 0,93 h 0,00 h 587 W/m 8,4 km/h (2 Bft) 99,43 %
20.07.2018 12:00 27,0 C 33,0 C 23,7 C 52 % 1011,7 hPa 0,0 l/m 1,00 h 0,00 h 619 W/m 7,2 km/h (2 Bft) 96,91 %
20.07.2018 13:00 28,0 C 32,3 C 24,9 C 49 % 1011,2 hPa 0,0 l/m 1,00 h 0,00 h 782 W/m 6,5 km/h (2 Bft) 96,04 %
20.07.2018 14:00 28,1 C 28,3 C 25,6 C 48 % 1010,6 hPa 0,0 l/m 1,00 h 0,00 h 751 W/m 8,0 km/h (2 Bft) 98,72 %
20.07.2018 15:00 28,6 C 29,5 C 26,4 C 46 % 1010,2 hPa 0,0 l/m 1,00 h 0,00 h 809 W/m 8,4 km/h (2 Bft) 97,80 %
20.07.2018 16:00 29,3 C 33,0 C 26,8 C 42 % 1009,7 hPa 0,0 l/m 1,00 h 0,00 h 729 W/m 8,9 km/h (2 Bft) 96,59 %
20.07.2018 17:00 29,4 C 30,4 C 27,1 C 40 % 1009,1 hPa 0,0 l/m 1,00 h 0,00 h 563 W/m 9,0 km/h (2 Bft) 98,07 %
20.07.2018 18:00 28,8 C 27,8 C 26,2 C 41 % 1008,9 hPa 0,0 l/m 0,27 h 0,00 h 202 W/m 7,9 km/h (2 Bft) 97,50 %
20.07.2018 19:00 26,3 C 19,8 C 18,3 C 49 % 1008,8 hPa 0,0 l/m 0,07 h 0,00 h 109 W/m 11,0 km/h (2 Bft) 98,15 %
20.07.2018 20:00 24,3 C 17,5 C 16,7 C 56 % 1008,8 hPa 0,0 l/m 0,00 h 0,00 h 40 W/m 12,6 km/h (3 Bft) 96,17 %
20.07.2018 21:00 22,9 C 17,1 C 16,7 C 58 % 1009,1 hPa 0,0 l/m 0,00 h 0,07 h 8 W/m 10,0 km/h (2 Bft) 97,28 %
20.07.2018 22:00 22,2 C 20,6 C 19,8 C 58 % 1009,2 hPa 0,0 l/m 0,00 h 0,00 h 0 W/m 5,0 km/h (1 Bft) 98,14 %
20.07.2018 23:00 21,9 C 21,0 C 20,3 C 57 % 1009,0 hPa 0,0 l/m 0,00 h 0,00 h 0 W/m 5,3 km/h (1 Bft) 98,73 %
21.07.2018 00:00 21,5 C 20,6 C 19,6 C 60 % 1009,0 hPa 0,0 l/m 0,00 h 0,00 h 0 W/m 2,5 km/h (1 Bft) 96,46 %
21.07.2018 01:00 21,2 C 20,2 C 19,6 C 64 % 1008,9 hPa 0,0 l/m 0,00 h 0,00 h 0 W/m 2,5 km/h (1 Bft) 98,23 %
21.07.2018 02:00 20,8 C 19,2 C 18,7 C 68 % 1008,5 hPa 0,0 l/m 0,00 h 0,07 h 0 W/m 0,8 km/h (0 Bft) 98,27 %
21.07.2018 03:00 20,1 C 19,0 C 18,4 C 71 % 1008,3 hPa 0,0 l/m 0,00 h 0,00 h 0 W/m 0,4 km/h (0 Bft) 96,54 %
21.07.2018 04:00 19,8 C 18,8 C 18,5 C 75 % 1008,2 hPa 0,0 l/m 0,00 h 0,00 h 0 W/m 0,9 km/h (0 Bft) 97,86 %
21.07.2018 05:00 19,4 C 17,8 C 17,8 C 76 % 1008,1 hPa 0,0 l/m 0,00 h 0,00 h 5 W/m 0,8 km/h (0 Bft) 97,56 %
21.07.2018 06:00 18,5 C 17,2 C 16,9 C 80 % 1008,2 hPa 0,0 l/m 0,00 h 0,00 h 18 W/m 0,1 km/h (0 Bft) 97,58 %
21.07.2018 07:00 18,2 C 18,3 C 17,5 C 83 % 1008,6 hPa 0,0 l/m 0,00 h 0,00 h 85 W/m 0,7 km/h (0 Bft) 98,10 %
21.07.2018 08:00 19,3 C 20,4 C 19,1 C 83 % 1009,0 hPa 0,0 l/m 0,43 h 0,00 h 167 W/m 3,2 km/h (1 Bft) 96,58 %
21.07.2018 09:00 21,1 C 23,1 C 20,6 C 76 % 1009,1 hPa 0,0 l/m 0,80 h 0,00 h 300 W/m 3,3 km/h (1 Bft) 97,42 %
21.07.2018 10:00 23,0 C 25,8 C 21,8 C 67 % 1009,0 hPa 0,0 l/m 0,93 h 0,00 h 433 W/m 5,1 km/h (1 Bft) 98,00 %
21.07.2018 11:00 25,7 C 33,2 C 22,9 C 60 % 1008,9 hPa 0,0 l/m 1,00 h 0,00 h 683 W/m 6,9 km/h (2 Bft) 97,42 %
21.07.2018 12:00 28,1 C 35,2 C 24,4 C 49 % 1008,9 hPa 0,0 l/m 1,00 h 0,00 h 761 W/m 7,6 km/h (2 Bft) 97,87 %
21.07.2018 13:00 28,7 C 33,2 C 25,7 C 47 % 1008,9 hPa 0,0 l/m 1,00 h 0,00 h 823 W/m 8,1 km/h (2 Bft) 98,37 %
21.07.2018 14:00 29,1 C 29,6 C 26,8 C 47 % 1008,8 hPa 0,0 l/m 1,00 h 0,00 h 857 W/m 7,5 km/h (2 Bft) 97,72 %
21.07.2018 15:00 29,7 C 30,7 C 27,1 C 47 % 1008,5 hPa 0,0 l/m 0,83 h 0,00 h 777 W/m 8,4 km/h (2 Bft) 96,89 %
21.07.2018 16:00 29,8 C 32,1 C 27,0 C 47 % 1008,3 hPa 0,0 l/m 0,67 h 0,00 h 560 W/m 7,0 km/h (2 Bft) 97,13 %
21.07.2018 17:00 29,1 C 25,6 C 23,7 C 50 % 1008,3 hPa 0,0 l/m 0,23 h 0,00 h 264 W/m 6,8 km/h (2 Bft) 99,57 %
21.07.2018 18:00 27,5 C 20,2 C 19,6 C 55 % 1008,2 hPa 0,0 l/m 0,97 h 0,00 h 392 W/m 8,5 km/h (2 Bft) 96,05 %
21.07.2018 19:00 26,6 C 23,5 C 23,6 C 56 % 1008,3 hPa 0,0 l/m 0,00 h 0,00 h 51 W/m 8,5 km/h (2 Bft) 96,71 %
21.07.2018 20:00 25,0 C 20,0 C 18,8 C 62 % 1008,5 hPa 0,0 l/m 0,20 h 0,00 h 50 W/m 6,4 km/h (2 Bft) 99,71 %
21.07.2018 21:00 23,2 C 18,0 C 17,5 C 71 % 1009,1 hPa 0,0 l/m 0,20 h 0,00 h 17 W/m 4,4 km/h (1 Bft) 95,66 %
21.07.2018 22:00 22,0 C 18,3 C 18,9 C 74 % 1009,8 hPa 0,0 l/m 0,00 h 0,00 h 0 W/m 2,6 km/h (1 Bft) 97,08 %
21.07.2018 23:00 21,7 C 19,6 C 20,2 C 74 % 1010,2 hPa 0,0 l/m 0,00 h 0,00 h 0 W/m 5,3 km/h (1 Bft) 99,65 %
22.07.2018 00:00 21,0 C 19,6 C 19,5 C 75 % 1010,3 hPa 0,0 l/m 0,00 h 0,00 h 0 W/m 6,0 km/h (2 Bft) 96,01 %
22.07.2018 01:00 20,0 C 18,7 C 18,5 C 79 % 1010,7 hPa 0,0 l/m 0,00 h 0,00 h 0 W/m 6,5 km/h (2 Bft) 96,91 %
22.07.2018 02:00 19,1 C 17,7 C 17,9 C 80 % 1010,9 hPa 0,0 l/m 0,00 h 0,00 h 0 W/m 2,8 km/h (1 Bft) 98,86 %
22.07.2018 03:00 18,3 C 16,9 C 17,0 C 82 % 1010,9 hPa 0,0 l/m 0,00 h 0,00 h 0 W/m 0,9 km/h (0 Bft) 95,88 %
22.07.2018 04:00 17,4 C 16,1 C 16,4 C 84 % 1011,1 hPa 0,0 l/m 0,00 h 0,00 h 0 W/m 2,1 km/h (1 Bft) 99,19 %
22.07.2018 05:00 16,7 C 15,5 C 15,8 C 85 % 1011,3 hPa 0,0 l/m 0,00 h 0,00 h 6 W/m 0,1 km/h (0 Bft) 96,50 %
22.07.2018 06:00 16,3 C 15,8 C 15,8 C 88 % 1011,9 hPa 0,0 l/m 0,00 h 0,00 h 30 W/m 1,3 km/h (1 Bft) 96,40 %
22.07.2018 07:00 16,6 C 16,6 C 16,2 C 89 % 1012,2 hPa 0,0 l/m 0,00 h 0,00 h 65 W/m 3,9 km/h (1 Bft) 99,08 %
22.07.2018 08:00 17,4 C 18,3 C 17,2 C 86 % 1012,5 hPa 0,0 l/m 0,47 h 0,00 h 196 W/m 5,8 km/h (2 Bft) 97,87 %
22.07.2018 09:00 19,4 C 21,3 C 19,0 C 79 % 1012,8 hPa 0,0 l/m 1,00 h 0,00 h 408 W/m 8,5 km/h (2 Bft) 95,35 %
22.07.2018 10:00 21,7 C 25,3 C 20,6 C 69 % 1012,7 hPa 0,0 l/m 1,00 h 0,00 h 563 W/m 7,8 km/h (2 Bft) 99,36 %
22.07.2018 11:00 24,8 C 31,9 C 22,2 C 59 % 1012,8 hPa 0,0 l/m 1,00 h 0,00 h 649 W/m 7,4 km/h (2 Bft) 97,15 %
22.07.2018 12:00 27,3 C 34,6 C 23,6 C 52 % 1012,8 hPa 0,0 l/m 1,00 h 0,00 h 758 W/m 10,3 km/h (2 Bft) 96,27 %
22.07.2018 13:00 27,7 C 31,7 C 24,8 C 52 % 1012,7 hPa 0,0 l/m 0,97 h 0,00 h 812 W/m 10,5 km/h (2 Bft) 98,61 %
22.07.2018 14:00 27,5 C 27,9 C 25,1 C 53 % 1012,3 hPa 0,0 l/m 0,77 h 0,00 h 688 W/m 8,9 km/h (2 Bft) 96,36 %
22.07.2018 15:00 27,8 C 28,5 C 25,6 C 53 % 1011,9 hPa 0,0 l/m 0,63 h 0,00 h 567 W/m 9,6 km/h (2 Bft) 97,57 %
22.07.2018 16:00 28,0 C 28,0 C 25,6 C 52 % 1012,1 hPa 0,0 l/m 0,53 h 0,00 h 340 W/m 11,1 km/h (2 Bft) 97,71 %
22.07.2018 17:00 27,4 C 27,6 C 25,4 C 55 % 1012,2 hPa 0,0 l/m 0,33 h 0,00 h 299 W/m 10,7 km/h (2 Bft) 97,30 %
22.07.2018 18:00 27,2 C 27,5 C 25,6 C 55 % 1011,9 hPa 0,0 l/m 0,83 h 0,00 h 299 W/m 7,7 km/h (2 Bft) 97,83 %
22.07.2018 19:00 27,5 C 27,0 C 25,0 C 54 % 1012,0 hPa 0,0 l/m 0,93 h 0,00 h 170 W/m 8,5 km/h (2 Bft) 96,59 %
22.07.2018 20:00 26,2 C 25,1 C 23,8 C 55 % 1012,2 hPa 0,0 l/m 0,00 h 0,00 h 57 W/m 8,7 km/h (2 Bft) 99,22 %
22.07.2018 21:00 24,8 C 23,2 C 22,6 C 58 % 1012,9 hPa 0,0 l/m 0,13 h 0,00 h 15 W/m 6,1 km/h (2 Bft) 98,00 %
22.07.2018 22:00 23,2 C 21,1 C 20,9 C 63 % 1013,5 hPa 0,0 l/m 0,00 h 0,00 h 0 W/m 3,8 km/h (1 Bft) 96,23 %
22.07.2018 23:00 21,6 C 19,5 C 19,5 C 69 % 1013,9 hPa 0,0 l/m 0,00 h 0,00 h 0 W/m 1,4 km/h (1 Bft) 98,30 %
Min-Datum _ 18.07.18 18.07.18 18.07.18 16.07.18 21.07.18 - - - - 16.07.18 18.07.18
_ Min-Zeit 06:12 04:52 05:42 16:30 05:28 - - - - 00:00 00:02
Minimum _ 13,1 C 12,2 C 12,2 C 34 % 1007,9 hPa - - - - 0,0 km/h (0 Bft) 10,00 %
Max-Datum _ 16.07.18 16.07.18 16.07.18 18.07.18 18.07.18 16.07.18 16.07.18 20.07.18 18.07.18 17.07.18 16.07.18
_ Max-Zeit 16:26 12:44 16:52 07:38 09:04 00:00 12:08 21:28 13:44 20:10 00:20
Maximum _ 30,7 C 40,0 C 28,3 C 93 % 1017,1 hPa 0,0 l/m 0,07 h 0,03 h 1079 W/m 29,3 km/h
W-NW (5 Bft)
100,00 %
Durchschnitt _ 22,6 C 22,8 C 20,3 C 63 % 1012,3 hPa #0,0 l/m #67:50 h #8 min. 385 W/m 5,3 km/h (1 Bft) 97,51 %
© 2018 W. Hausmann